sensor_id;sensor_type;location;lat;lon;timestamp;temperature;humidity
15815;DHT22;8008;50.024;8.172;2023-04-03T03:01:47;7.20;99.90
15815;DHT22;8008;50.024;8.172;2023-04-03T03:04:15;7.10;99.90
15815;DHT22;8008;50.024;8.172;2023-04-03T03:06:44;7.10;99.90
15815;DHT22;8008;50.024;8.172;2023-04-03T03:09:13;7.10;99.90
15815;DHT22;8008;50.024;8.172;2023-04-03T03:11:42;7.00;99.90
15815;DHT22;8008;50.024;8.172;2023-04-03T03:14:10;7.00;99.90
15815;DHT22;8008;50.024;8.172;2023-04-03T03:16:38;7.00;99.90
15815;DHT22;8008;50.024;8.172;2023-04-03T03:19:07;7.10;99.90
15815;DHT22;8008;50.024;8.172;2023-04-03T03:21:35;7.00;99.90
15815;DHT22;8008;50.024;8.172;2023-04-03T03:24:03;7.00;99.90
15815;DHT22;8008;50.024;8.172;2023-04-03T03:26:32;7.00;99.90
15815;DHT22;8008;50.024;8.172;2023-04-03T03:29:02;7.00;99.90
15815;DHT22;8008;50.024;8.172;2023-04-03T03:31:30;6.90;99.90
15815;DHT22;8008;50.024;8.172;2023-04-03T03:33:57;6.90;99.90
15815;DHT22;8008;50.024;8.172;2023-04-03T03:36:27;6.90;99.90
15815;DHT22;8008;50.024;8.172;2023-04-03T03:38:56;6.90;99.90
15815;DHT22;8008;50.024;8.172;2023-04-03T03:41:24;6.90;99.90
15815;DHT22;8008;50.024;8.172;2023-04-03T03:43:52;6.80;99.90
15815;DHT22;8008;50.024;8.172;2023-04-03T03:46:20;6.80;99.90
15815;DHT22;8008;50.024;8.172;2023-04-03T03:48:48;6.80;99.90
15815;DHT22;8008;50.024;8.172;2023-04-03T03:51:16;6.80;99.90
15815;DHT22;8008;50.024;8.172;2023-04-03T03:53:45;6.80;99.90
15815;DHT22;8008;50.024;8.172;2023-04-03T03:56:16;6.80;99.90
15815;DHT22;8008;50.024;8.172;2023-04-03T03:58:45;6.70;99.90
15815;DHT22;8008;50.024;8.172;2023-04-03T04:01:13;6.70;99.90
15815;DHT22;8008;50.024;8.172;2023-04-03T04:03:45;6.70;99.90
15815;DHT22;8008;50.024;8.172;2023-04-03T04:06:18;6.70;99.90
15815;DHT22;8008;50.024;8.172;2023-04-03T04:08:48;6.70;99.90
15815;DHT22;8008;50.024;8.172;2023-04-03T04:11:16;6.60;99.90
15815;DHT22;8008;50.024;8.172;2023-04-03T04:13:46;6.60;99.90
15815;DHT22;8008;50.024;8.172;2023-04-03T04:16:16;6.70;99.90
15815;DHT22;8008;50.024;8.172;2023-04-03T04:18:44;6.60;99.90
15815;DHT22;8008;50.024;8.172;2023-04-03T04:21:12;6.50;99.90
15815;DHT22;8008;50.024;8.172;2023-04-03T04:23:41;6.50;99.90
15815;DHT22;8008;50.024;8.172;2023-04-03T04:26:10;6.50;99.90
15815;DHT22;8008;50.024;8.172;2023-04-03T04:28:39;6.40;99.90
15815;DHT22;8008;50.024;8.172;2023-04-03T04:31:07;6.40;99.90
15815;DHT22;8008;50.024;8.172;2023-04-03T04:33:36;6.30;99.90
15815;DHT22;8008;50.024;8.172;2023-04-03T04:36:06;6.40;99.90
15815;DHT22;8008;50.024;8.172;2023-04-03T04:38:34;6.40;99.90
15815;DHT22;8008;50.024;8.172;2023-04-03T04:41:02;6.30;99.90
15815;DHT22;8008;50.024;8.172;2023-04-03T04:43:32;6.30;99.90
15815;DHT22;8008;50.024;8.172;2023-04-03T04:46:02;6.30;99.90
15815;DHT22;8008;50.024;8.172;2023-04-03T04:48:33;6.30;99.90
15815;DHT22;8008;50.024;8.172;2023-04-03T04:51:02;6.30;99.50
15815;DHT22;8008;50.024;8.172;2023-04-03T04:53:32;6.30;99.60
15815;DHT22;8008;50.024;8.172;2023-04-03T04:56:00;6.20;99.90
15815;DHT22;8008;50.024;8.172;2023-04-03T04:58:29;6.20;99.90
15815;DHT22;8008;50.024;8.172;2023-04-03T05:01:00;6.20;99.90
15815;DHT22;8008;50.024;8.172;2023-04-03T05:03:29;6.20;99.90
15815;DHT22;8008;50.024;8.172;2023-04-03T05:05:58;6.20;99.90
15815;DHT22;8008;50.024;8.172;2023-04-03T05:08:28;6.10;99.90
15815;DHT22;8008;50.024;8.172;2023-04-03T05:10:56;6.10;99.90
15815;DHT22;8008;50.024;8.172;2023-04-03T05:13:26;6.00;99.90
15815;DHT22;8008;50.024;8.172;2023-04-03T05:15:55;6.00;99.90
15815;DHT22;8008;50.024;8.172;2023-04-03T05:18:25;6.00;99.90
15815;DHT22;8008;50.024;8.172;2023-04-03T05:20:55;6.00;99.90
15815;DHT22;8008;50.024;8.172;2023-04-03T05:23:25;6.00;99.80
15815;DHT22;8008;50.024;8.172;2023-04-03T05:25:53;5.90;99.50
15815;DHT22;8008;50.024;8.172;2023-04-03T05:28:22;5.90;99.70
15815;DHT22;8008;50.024;8.172;2023-04-03T05:30:53;5.80;99.90
15815;DHT22;8008;50.024;8.172;2023-04-03T05:33:23;5.80;99.80
15815;DHT22;8008;50.024;8.172;2023-04-03T05:35:54;5.80;99.90
15815;DHT22;8008;50.024;8.172;2023-04-03T05:38:26;5.90;99.90
15815;DHT22;8008;50.024;8.172;2023-04-03T05:40:55;5.90;99.90
15815;DHT22;8008;50.024;8.172;2023-04-03T05:43:23;5.80;99.90
15815;DHT22;8008;50.024;8.172;2023-04-03T05:45:52;5.90;99.90
15815;DHT22;8008;50.024;8.172;2023-04-03T05:48:22;5.90;99.90
15815;DHT22;8008;50.024;8.172;2023-04-03T05:50:50;5.90;99.90
15815;DHT22;8008;50.024;8.172;2023-04-03T05:53:28;5.80;99.90
15815;DHT22;8008;50.024;8.172;2023-04-03T05:56:00;5.90;99.90
15815;DHT22;8008;50.024;8.172;2023-04-03T05:58:31;5.80;99.90
15815;DHT22;8008;50.024;8.172;2023-04-03T06:01:00;5.90;99.90
15815;DHT22;8008;50.024;8.172;2023-04-03T06:03:28;6.00;99.90
15815;DHT22;8008;50.024;8.172;2023-04-03T06:05:57;6.00;99.90
15815;DHT22;8008;50.024;8.172;2023-04-03T06:08:26;6.10;99.90
15815;DHT22;8008;50.024;8.172;2023-04-03T06:10:54;6.10;99.90
15815;DHT22;8008;50.024;8.172;2023-04-03T06:13:22;6.20;99.70
15815;DHT22;8008;50.024;8.172;2023-04-03T06:15:50;6.20;99.00
15815;DHT22;8008;50.024;8.172;2023-04-03T06:18:18;6.20;98.90
15815;DHT22;8008;50.024;8.172;2023-04-03T06:20:47;6.30;99.00
15815;DHT22;8008;50.024;8.172;2023-04-03T06:23:14;6.30;99.00
15815;DHT22;8008;50.024;8.172;2023-04-03T06:25:44;6.30;98.70
15815;DHT22;8008;50.024;8.172;2023-04-03T06:28:13;6.30;98.80
15815;DHT22;8008;50.024;8.172;2023-04-03T06:30:41;6.30;98.40
15815;DHT22;8008;50.024;8.172;2023-04-03T06:33:08;6.40;98.70
15815;DHT22;8008;50.024;8.172;2023-04-03T06:35:37;6.40;97.60
15815;DHT22;8008;50.024;8.172;2023-04-03T06:38:05;6.40;97.60
15815;DHT22;8008;50.024;8.172;2023-04-03T06:40:36;6.50;97.40
15815;DHT22;8008;50.024;8.172;2023-04-03T06:43:05;6.50;97.10
15815;DHT22;8008;50.024;8.172;2023-04-03T06:45:33;6.40;96.90
15815;DHT22;8008;50.024;8.172;2023-04-03T06:48:03;6.40;96.80
15815;DHT22;8008;50.024;8.172;2023-04-03T06:50:32;6.40;96.70
15815;DHT22;8008;50.024;8.172;2023-04-03T06:53:00;6.50;96.70
15815;DHT22;8008;50.024;8.172;2023-04-03T06:55:29;6.60;97.00
15815;DHT22;8008;50.024;8.172;2023-04-03T06:57:57;6.60;96.70
15815;DHT22;8008;50.024;8.172;2023-04-03T07:00:26;6.70;96.80
15815;DHT22;8008;50.024;8.172;2023-04-03T07:02:55;6.80;96.60
15815;DHT22;8008;50.024;8.172;2023-04-03T07:05:24;6.90;96.00
15815;DHT22;8008;50.024;8.172;2023-04-03T07:07:53;6.90;95.20
15815;DHT22;8008;50.024;8.172;2023-04-03T07:10:20;6.90;94.50
15815;DHT22;8008;50.024;8.172;2023-04-03T07:12:48;6.90;95.10
15815;DHT22;8008;50.024;8.172;2023-04-03T07:15:16;6.90;94.50
15815;DHT22;8008;50.024;8.172;2023-04-03T07:17:45;6.90;94.10
15815;DHT22;8008;50.024;8.172;2023-04-03T07:20:14;6.80;93.60
15815;DHT22;8008;50.024;8.172;2023-04-03T07:22:42;6.80;93.70
15815;DHT22;8008;50.024;8.172;2023-04-03T07:25:10;6.90;94.40
15815;DHT22;8008;50.024;8.172;2023-04-03T07:27:38;6.90;94.30
15815;DHT22;8008;50.024;8.172;2023-04-03T07:30:06;6.90;93.70
15815;DHT22;8008;50.024;8.172;2023-04-03T07:32:35;6.90;93.50
15815;DHT22;8008;50.024;8.172;2023-04-03T07:35:05;6.90;93.50
15815;DHT22;8008;50.024;8.172;2023-04-03T07:37:33;6.90;93.60
15815;DHT22;8008;50.024;8.172;2023-04-03T07:40:01;6.90;93.70
15815;DHT22;8008;50.024;8.172;2023-04-03T07:42:30;6.90;93.40
15815;DHT22;8008;50.024;8.172;2023-04-03T07:44:58;6.90;92.70
15815;DHT22;8008;50.024;8.172;2023-04-03T07:47:26;6.90;92.80
15815;DHT22;8008;50.024;8.172;2023-04-03T07:49:54;7.10;93.30
15815;DHT22;8008;50.024;8.172;2023-04-03T07:52:25;7.00;92.80
15815;DHT22;8008;50.024;8.172;2023-04-03T07:54:53;7.10;93.20
15815;DHT22;8008;50.024;8.172;2023-04-03T07:57:21;7.20;93.30
15815;DHT22;8008;50.024;8.172;2023-04-03T07:59:48;7.10;92.30
15815;DHT22;8008;50.024;8.172;2023-04-03T08:02:16;7.20;92.50
15815;DHT22;8008;50.024;8.172;2023-04-03T08:04:44;7.30;93.00
15815;DHT22;8008;50.024;8.172;2023-04-03T08:07:12;7.40;92.60
15815;DHT22;8008;50.024;8.172;2023-04-03T08:09:41;7.40;91.70
15815;DHT22;8008;50.024;8.172;2023-04-03T08:12:09;7.40;91.60
15815;DHT22;8008;50.024;8.172;2023-04-03T08:14:38;7.40;91.60
15815;DHT22;8008;50.024;8.172;2023-04-03T08:17:05;7.30;91.90
15815;DHT22;8008;50.024;8.172;2023-04-03T08:19:36;7.40;91.70
15815;DHT22;8008;50.024;8.172;2023-04-03T08:22:04;7.30;91.10
15815;DHT22;8008;50.024;8.172;2023-04-03T08:24:32;7.20;90.80
15815;DHT22;8008;50.024;8.172;2023-04-03T08:27:01;7.30;91.40
15815;DHT22;8008;50.024;8.172;2023-04-03T08:29:29;7.40;91.20
15815;DHT22;8008;50.024;8.172;2023-04-03T08:31:59;7.40;90.80
15815;DHT22;8008;50.024;8.172;2023-04-03T08:34:27;7.40;91.00
15815;DHT22;8008;50.024;8.172;2023-04-03T08:36:55;7.40;91.40
15815;DHT22;8008;50.024;8.172;2023-04-03T08:39:23;7.50;91.60
15815;DHT22;8008;50.024;8.172;2023-04-03T08:41:51;7.50;91.70
15815;DHT22;8008;50.024;8.172;2023-04-03T08:44:25;7.60;91.90
15815;DHT22;8008;50.024;8.172;2023-04-03T08:47:08;7.60;91.10
15815;DHT22;8008;50.024;8.172;2023-04-03T08:49:41;7.70;91.30
15815;DHT22;8008;50.024;8.172;2023-04-03T08:52:16;7.70;91.70
15815;DHT22;8008;50.024;8.172;2023-04-03T08:54:50;7.80;90.90
15815;DHT22;8008;50.024;8.172;2023-04-03T08:57:30;7.90;90.90
15815;DHT22;8008;50.024;8.172;2023-04-03T09:00:04;7.90;90.30
15815;DHT22;8008;50.024;8.172;2023-04-03T09:02:39;8.00;90.80
15815;DHT22;8008;50.024;8.172;2023-04-03T09:05:12;8.00;89.80
15815;DHT22;8008;50.024;8.172;2023-04-03T09:07:44;8.00;90.00
15815;DHT22;8008;50.024;8.172;2023-04-03T09:10:18;8.00;90.80
15815;DHT22;8008;50.024;8.172;2023-04-03T09:12:55;8.00;89.50
15815;DHT22;8008;50.024;8.172;2023-04-03T09:15:28;8.00;88.30
15815;DHT22;8008;50.024;8.172;2023-04-03T09:18:08;8.00;87.80
15815;DHT22;8008;50.024;8.172;2023-04-03T09:20:45;8.00;87.10
15815;DHT22;8008;50.024;8.172;2023-04-03T09:23:19;8.10;88.10
15815;DHT22;8008;50.024;8.172;2023-04-03T09:25:49;8.20;86.50
15815;DHT22;8008;50.024;8.172;2023-04-03T09:28:18;8.20;86.10
15815;DHT22;8008;50.024;8.172;2023-04-03T09:30:47;8.40;86.70
15815;DHT22;8008;50.024;8.172;2023-04-03T09:33:16;8.50;87.10
15815;DHT22;8008;50.024;8.172;2023-04-03T09:35:45;8.50;82.10
15815;DHT22;8008;50.024;8.172;2023-04-03T09:38:17;8.60;79.30
15815;DHT22;8008;50.024;8.172;2023-04-03T09:40:47;8.60;79.90
15815;DHT22;8008;50.024;8.172;2023-04-03T09:43:25;8.50;80.60
15815;DHT22;8008;50.024;8.172;2023-04-03T09:45:56;8.30;90.40
15815;DHT22;8008;50.024;8.172;2023-04-03T09:48:25;8.00;99.90
15815;DHT22;8008;50.024;8.172;2023-04-03T09:50:59;7.60;99.90
15815;DHT22;8008;50.024;8.172;2023-04-03T09:53:34;7.70;99.90
15815;DHT22;8008;50.024;8.172;2023-04-03T09:56:05;7.60;97.30
15815;DHT22;8008;50.024;8.172;2023-04-03T09:58:47;7.60;96.00
15815;DHT22;8008;50.024;8.172;2023-04-03T10:01:27;7.90;96.00
15815;DHT22;8008;50.024;8.172;2023-04-03T10:04:09;8.10;94.40
15815;DHT22;8008;50.024;8.172;2023-04-03T10:06:39;8.50;92.80
15815;DHT22;8008;50.024;8.172;2023-04-03T10:09:19;8.80;92.80
15815;DHT22;8008;50.024;8.172;2023-04-03T10:12:02;8.80;92.60
15815;DHT22;8008;50.024;8.172;2023-04-03T10:14:32;9.10;92.90
15815;DHT22;8008;50.024;8.172;2023-04-03T10:17:16;9.40;92.00
15815;DHT22;8008;50.024;8.172;2023-04-03T10:19:48;9.30;91.10
15815;DHT22;8008;50.024;8.172;2023-04-03T10:22:27;9.10;89.70
15815;DHT22;8008;50.024;8.172;2023-04-03T10:25:04;9.10;90.00
15815;DHT22;8008;50.024;8.172;2023-04-03T10:27:42;9.20;90.90
15815;DHT22;8008;50.024;8.172;2023-04-03T10:30:21;9.10;90.20
15815;DHT22;8008;50.024;8.172;2023-04-03T10:33:06;9.20;88.70
15815;DHT22;8008;50.024;8.172;2023-04-03T10:35:44;9.50;90.00
15815;DHT22;8008;50.024;8.172;2023-04-03T10:38:18;9.60;86.60
15815;DHT22;8008;50.024;8.172;2023-04-03T10:40:52;9.60;86.90
15815;DHT22;8008;50.024;8.172;2023-04-03T10:43:29;9.90;89.10
15815;DHT22;8008;50.024;8.172;2023-04-03T10:46:04;10.20;87.90
15815;DHT22;8008;50.024;8.172;2023-04-03T10:48:43;10.50;86.60
15815;DHT22;8008;50.024;8.172;2023-04-03T10:51:24;10.60;83.90
15815;DHT22;8008;50.024;8.172;2023-04-03T10:53:56;10.50;82.40
15815;DHT22;8008;50.024;8.172;2023-04-03T10:56:31;10.20;81.00
15815;DHT22;8008;50.024;8.172;2023-04-03T10:59:13;10.00;80.40
15815;DHT22;8008;50.024;8.172;2023-04-03T11:01:46;9.90;81.60
15815;DHT22;8008;50.024;8.172;2023-04-03T11:04:18;9.90;81.60
15815;DHT22;8008;50.024;8.172;2023-04-03T11:06:51;10.00;80.40
15815;DHT22;8008;50.024;8.172;2023-04-03T11:09:24;10.20;79.70
15815;DHT22;8008;50.024;8.172;2023-04-03T11:11:56;10.10;77.50
15815;DHT22;8008;50.024;8.172;2023-04-03T11:14:29;10.00;78.40
15815;DHT22;8008;50.024;8.172;2023-04-03T11:17:05;10.10;77.40
15815;DHT22;8008;50.024;8.172;2023-04-03T11:19:41;10.30;78.00
15815;DHT22;8008;50.024;8.172;2023-04-03T11:22:16;10.40;75.90
15815;DHT22;8008;50.024;8.172;2023-04-03T11:24:53;10.60;77.00
15815;DHT22;8008;50.024;8.172;2023-04-03T11:27:24;10.60;77.00
15815;DHT22;8008;50.024;8.172;2023-04-03T11:29:54;10.40;75.80
15815;DHT22;8008;50.024;8.172;2023-04-03T11:32:46;10.50;76.40
15815;DHT22;8008;50.024;8.172;2023-04-03T11:35:19;10.80;75.30
15815;DHT22;8008;50.024;8.172;2023-04-03T11:37:49;11.60;76.70
15815;DHT22;8008;50.024;8.172;2023-04-03T11:40:22;12.10;73.90
15815;DHT22;8008;50.024;8.172;2023-04-03T11:42:53;12.40;72.50
15815;DHT22;8008;50.024;8.172;2023-04-03T11:45:31;12.40;71.80
15815;DHT22;8008;50.024;8.172;2023-04-03T11:48:04;12.30;70.50
15815;DHT22;8008;50.024;8.172;2023-04-03T11:50:51;12.70;70.90
15815;DHT22;8008;50.024;8.172;2023-04-03T11:53:31;13.10;69.10
15815;DHT22;8008;50.024;8.172;2023-04-03T11:56:02;13.30;67.60
15815;DHT22;8008;50.024;8.172;2023-04-03T11:58:32;13.00;65.20
15815;DHT22;8008;50.024;8.172;2023-04-03T12:01:10;12.30;65.60
15815;DHT22;8008;50.024;8.172;2023-04-03T12:07:02;11.20;65.90
15815;DHT22;8008;50.024;8.172;2023-04-03T12:12:38;12.80;67.70
15815;DHT22;8008;50.024;8.172;2023-04-03T12:15:19;13.90;65.80
15815;DHT22;8008;50.024;8.172;2023-04-03T12:17:48;14.50;62.70
15815;DHT22;8008;50.024;8.172;2023-04-03T12:20:55;14.30;61.90
15815;DHT22;8008;50.024;8.172;2023-04-03T12:23:27;13.70;61.70
15815;DHT22;8008;50.024;8.172;2023-04-03T12:26:05;13.00;61.50
15815;DHT22;8008;50.024;8.172;2023-04-03T12:28:39;12.20;61.10
15815;DHT22;8008;50.024;8.172;2023-04-03T12:31:10;11.70;61.30
15815;DHT22;8008;50.024;8.172;2023-04-03T12:33:52;11.40;63.30
15815;DHT22;8008;50.024;8.172;2023-04-03T12:36:32;11.20;61.90
15815;DHT22;8008;50.024;8.172;2023-04-03T12:39:16;11.00;62.00
15815;DHT22;8008;50.024;8.172;2023-04-03T12:41:55;10.80;61.80
15815;DHT22;8008;50.024;8.172;2023-04-03T12:44:40;10.70;61.50
15815;DHT22;8008;50.024;8.172;2023-04-03T12:47:28;10.70;61.10
15815;DHT22;8008;50.024;8.172;2023-04-03T12:49:59;10.70;60.40
15815;DHT22;8008;50.024;8.172;2023-04-03T12:52:33;10.70;61.70
15815;DHT22;8008;50.024;8.172;2023-04-03T12:55:11;10.60;61.00
15815;DHT22;8008;50.024;8.172;2023-04-03T12:57:41;10.70;61.30
15815;DHT22;8008;50.024;8.172;2023-04-03T13:00:31;10.80;60.40
15815;DHT22;8008;50.024;8.172;2023-04-03T13:03:02;10.80;61.70
15815;DHT22;8008;50.024;8.172;2023-04-03T13:05:31;10.80;60.50
15815;DHT22;8008;50.024;8.172;2023-04-03T13:08:05;10.70;58.80
15815;DHT22;8008;50.024;8.172;2023-04-03T13:10:51;10.70;59.40
15815;DHT22;8008;50.024;8.172;2023-04-03T13:13:20;10.60;58.70
15815;DHT22;8008;50.024;8.172;2023-04-03T13:15:50;10.50;59.00
15815;DHT22;8008;50.024;8.172;2023-04-03T13:18:23;10.50;58.90
15815;DHT22;8008;50.024;8.172;2023-04-03T13:20:53;10.30;59.30
15815;DHT22;8008;50.024;8.172;2023-04-03T13:23:22;10.30;60.20
15815;DHT22;8008;50.024;8.172;2023-04-03T13:25:51;10.30;60.80
15815;DHT22;8008;50.024;8.172;2023-04-03T13:28:22;10.30;59.50
15815;DHT22;8008;50.024;8.172;2023-04-03T13:30:56;10.30;59.40
15815;DHT22;8008;50.024;8.172;2023-04-03T13:33:29;10.40;60.10
15815;DHT22;8008;50.024;8.172;2023-04-03T13:36:02;10.40;59.00
15815;DHT22;8008;50.024;8.172;2023-04-03T13:38:32;10.50;58.80
15815;DHT22;8008;50.024;8.172;2023-04-03T13:41:04;10.50;57.20
15815;DHT22;8008;50.024;8.172;2023-04-03T13:43:34;10.60;57.30
15815;DHT22;8008;50.024;8.172;2023-04-03T13:46:20;10.80;56.70
15815;DHT22;8008;50.024;8.172;2023-04-03T13:48:50;11.10;56.90
15815;DHT22;8008;50.024;8.172;2023-04-03T13:51:22;12.30;57.00
15815;DHT22;8008;50.024;8.172;2023-04-03T13:53:53;14.50;56.40
15815;DHT22;8008;50.024;8.172;2023-04-03T13:56:27;16.30;53.40
15815;DHT22;8008;50.024;8.172;2023-04-03T13:59:05;17.80;52.90
15815;DHT22;8008;50.024;8.172;2023-04-03T14:01:43;19.50;51.80
15815;DHT22;8008;50.024;8.172;2023-04-03T14:04:18;20.60;49.10
15815;DHT22;8008;50.024;8.172;2023-04-03T14:06:47;21.20;47.40
15815;DHT22;8008;50.024;8.172;2023-04-03T14:09:17;22.20;46.40
15815;DHT22;8008;50.024;8.172;2023-04-03T14:11:47;22.50;43.60
15815;DHT22;8008;50.024;8.172;2023-04-03T14:14:18;22.50;42.60
15815;DHT22;8008;50.024;8.172;2023-04-03T14:16:50;23.20;42.70
15815;DHT22;8008;50.024;8.172;2023-04-03T14:19:22;23.40;40.60
15815;DHT22;8008;50.024;8.172;2023-04-03T14:21:51;23.40;39.80
15815;DHT22;8008;50.024;8.172;2023-04-03T14:24:20;23.30;39.70
15815;DHT22;8008;50.024;8.172;2023-04-03T14:26:50;23.70;39.80
15815;DHT22;8008;50.024;8.172;2023-04-03T14:29:20;23.50;38.40
15815;DHT22;8008;50.024;8.172;2023-04-03T14:31:49;23.80;39.70
15815;DHT22;8008;50.024;8.172;2023-04-03T14:34:29;23.80;38.30
15815;DHT22;8008;50.024;8.172;2023-04-03T14:36:57;23.60;38.30
15815;DHT22;8008;50.024;8.172;2023-04-03T14:39:25;23.30;38.00
15815;DHT22;8008;50.024;8.172;2023-04-03T14:41:54;23.30;38.00
15815;DHT22;8008;50.024;8.172;2023-04-03T14:44:22;24.30;37.70
15815;DHT22;8008;50.024;8.172;2023-04-03T14:46:50;24.50;36.50
15815;DHT22;8008;50.024;8.172;2023-04-03T14:49:25;24.40;37.40
15815;DHT22;8008;50.024;8.172;2023-04-03T14:51:55;24.50;36.40
15815;DHT22;8008;50.024;8.172;2023-04-03T14:54:24;24.40;35.60
15815;DHT22;8008;50.024;8.172;2023-04-03T14:56:57;24.00;36.40
15815;DHT22;8008;50.024;8.172;2023-04-03T14:59:26;23.50;36.00
15815;DHT22;8008;50.024;8.172;2023-04-03T15:01:54;22.20;36.00
15815;DHT22;8008;50.024;8.172;2023-04-03T15:04:22;21.20;36.20
15815;DHT22;8008;50.024;8.172;2023-04-03T15:06:52;20.40;36.10
15815;DHT22;8008;50.024;8.172;2023-04-03T15:09:22;20.00;36.90
15815;DHT22;8008;50.024;8.172;2023-04-03T15:11:52;19.90;37.90
15815;DHT22;8008;50.024;8.172;2023-04-03T15:14:21;20.00;37.60
15815;DHT22;8008;50.024;8.172;2023-04-03T15:17:14;20.50;37.70
15815;DHT22;8008;50.024;8.172;2023-04-03T15:19:43;21.40;37.50
15815;DHT22;8008;50.024;8.172;2023-04-03T15:22:14;22.00;37.30
15815;DHT22;8008;50.024;8.172;2023-04-03T15:24:42;22.30;36.40
15815;DHT22;8008;50.024;8.172;2023-04-03T15:27:11;22.70;36.30
15815;DHT22;8008;50.024;8.172;2023-04-03T15:29:42;22.90;36.50
15815;DHT22;8008;50.024;8.172;2023-04-03T15:32:11;22.20;35.60
15815;DHT22;8008;50.024;8.172;2023-04-03T15:34:40;20.40;36.00
15815;DHT22;8008;50.024;8.172;2023-04-03T15:37:08;18.60;36.60
15815;DHT22;8008;50.024;8.172;2023-04-03T15:39:36;17.30;38.10
15815;DHT22;8008;50.024;8.172;2023-04-03T15:42:04;16.20;38.90
15815;DHT22;8008;50.024;8.172;2023-04-03T15:44:33;15.40;39.30
15815;DHT22;8008;50.024;8.172;2023-04-03T15:47:03;14.70;38.60
15815;DHT22;8008;50.024;8.172;2023-04-03T15:49:33;14.10;39.60
15815;DHT22;8008;50.024;8.172;2023-04-03T15:52:01;13.80;39.80
15815;DHT22;8008;50.024;8.172;2023-04-03T15:54:29;13.40;41.00
15815;DHT22;8008;50.024;8.172;2023-04-03T15:56:58;13.10;40.40
15815;DHT22;8008;50.024;8.172;2023-04-03T15:59:27;12.80;41.40
15815;DHT22;8008;50.024;8.172;2023-04-03T16:01:58;12.40;41.50
15815;DHT22;8008;50.024;8.172;2023-04-03T16:04:29;12.30;42.10
15815;DHT22;8008;50.024;8.172;2023-04-03T16:07:00;12.20;41.80
15815;DHT22;8008;50.024;8.172;2023-04-03T16:09:28;12.00;41.80
15815;DHT22;8008;50.024;8.172;2023-04-03T16:11:57;11.70;42.20
15815;DHT22;8008;50.024;8.172;2023-04-03T16:14:27;11.70;42.40
15815;DHT22;8008;50.024;8.172;2023-04-03T16:16:57;11.60;42.50
15815;DHT22;8008;50.024;8.172;2023-04-03T16:19:25;11.40;43.10
15815;DHT22;8008;50.024;8.172;2023-04-03T16:21:55;11.30;43.20
15815;DHT22;8008;50.024;8.172;2023-04-03T16:24:24;11.30;43.90
15815;DHT22;8008;50.024;8.172;2023-04-03T16:26:52;11.20;43.60
15815;DHT22;8008;50.024;8.172;2023-04-03T16:29:20;11.10;44.50
15815;DHT22;8008;50.024;8.172;2023-04-03T16:31:48;11.10;44.00
15815;DHT22;8008;50.024;8.172;2023-04-03T16:34:16;11.10;44.70
15815;DHT22;8008;50.024;8.172;2023-04-03T16:36:44;11.10;44.90
15815;DHT22;8008;50.024;8.172;2023-04-03T16:39:14;11.00;45.00
15815;DHT22;8008;50.024;8.172;2023-04-03T16:41:42;10.90;45.00
15815;DHT22;8008;50.024;8.172;2023-04-03T16:44:10;10.90;44.10
15815;DHT22;8008;50.024;8.172;2023-04-03T16:46:38;10.70;43.10
15815;DHT22;8008;50.024;8.172;2023-04-03T16:49:06;10.80;44.70
15815;DHT22;8008;50.024;8.172;2023-04-03T16:51:48;10.70;43.90
15815;DHT22;8008;50.024;8.172;2023-04-03T16:54:17;10.60;43.90
15815;DHT22;8008;50.024;8.172;2023-04-03T16:56:45;10.50;43.70
15815;DHT22;8008;50.024;8.172;2023-04-03T16:59:14;10.50;44.40
15815;DHT22;8008;50.024;8.172;2023-04-03T17:01:42;10.40;44.20
15815;DHT22;8008;50.024;8.172;2023-04-03T17:04:10;10.40;44.10
15815;DHT22;8008;50.024;8.172;2023-04-03T17:06:39;10.30;44.90
15815;DHT22;8008;50.024;8.172;2023-04-03T17:09:08;10.10;44.30
15815;DHT22;8008;50.024;8.172;2023-04-03T17:11:38;10.10;45.20
15815;DHT22;8008;50.024;8.172;2023-04-03T17:14:06;10.10;46.10
15815;DHT22;8008;50.024;8.172;2023-04-03T17:16:35;10.10;45.80
15815;DHT22;8008;50.024;8.172;2023-04-03T17:19:04;9.80;45.20
15815;DHT22;8008;50.024;8.172;2023-04-03T17:21:33;9.80;45.50
15815;DHT22;8008;50.024;8.172;2023-04-03T17:24:04;9.80;45.20
15815;DHT22;8008;50.024;8.172;2023-04-03T17:26:35;9.70;45.10
15815;DHT22;8008;50.024;8.172;2023-04-03T17:29:05;9.60;45.20
15815;DHT22;8008;50.024;8.172;2023-04-03T17:31:33;9.50;45.50
15815;DHT22;8008;50.024;8.172;2023-04-03T17:34:02;9.40;46.20
15815;DHT22;8008;50.024;8.172;2023-04-03T17:36:32;9.30;46.10
15815;DHT22;8008;50.024;8.172;2023-04-03T17:39:00;9.30;46.60
15815;DHT22;8008;50.024;8.172;2023-04-03T17:41:28;9.30;46.70
15815;DHT22;8008;50.024;8.172;2023-04-03T17:43:56;9.30;47.80
15815;DHT22;8008;50.024;8.172;2023-04-03T17:46:26;9.20;46.80
15815;DHT22;8008;50.024;8.172;2023-04-03T17:48:55;9.20;47.10
15815;DHT22;8008;50.024;8.172;2023-04-03T17:51:25;9.10;46.70
15815;DHT22;8008;50.024;8.172;2023-04-03T17:53:53;9.00;47.40
15815;DHT22;8008;50.024;8.172;2023-04-03T17:56:23;9.00;48.10
15815;DHT22;8008;50.024;8.172;2023-04-03T17:58:53;9.00;47.70
15815;DHT22;8008;50.024;8.172;2023-04-03T18:01:25;9.00;47.70
15815;DHT22;8008;50.024;8.172;2023-04-03T18:03:57;8.90;47.60
15815;DHT22;8008;50.024;8.172;2023-04-03T18:06:27;8.80;47.60
15815;DHT22;8008;50.024;8.172;2023-04-03T18:09:02;8.80;48.10
15815;DHT22;8008;50.024;8.172;2023-04-03T18:11:33;8.80;48.80
15815;DHT22;8008;50.024;8.172;2023-04-03T18:14:02;8.60;48.00
15815;DHT22;8008;50.024;8.172;2023-04-03T18:16:34;8.50;48.20
15815;DHT22;8008;50.024;8.172;2023-04-03T18:19:02;8.50;48.50
15815;DHT22;8008;50.024;8.172;2023-04-03T18:21:49;8.50;48.50
15815;DHT22;8008;50.024;8.172;2023-04-03T18:24:19;8.40;48.30
15815;DHT22;8008;50.024;8.172;2023-04-03T18:26:50;8.40;48.20
15815;DHT22;8008;50.024;8.172;2023-04-03T18:29:20;8.40;47.60
15815;DHT22;8008;50.024;8.172;2023-04-03T18:31:51;8.40;47.90
15815;DHT22;8008;50.024;8.172;2023-04-03T18:34:20;8.30;47.80
15815;DHT22;8008;50.024;8.172;2023-04-03T18:36:48;8.20;48.00
15815;DHT22;8008;50.024;8.172;2023-04-03T18:39:18;8.20;48.30
15815;DHT22;8008;50.024;8.172;2023-04-03T18:41:47;8.30;48.60
15815;DHT22;8008;50.024;8.172;2023-04-03T18:44:18;8.30;48.40
15815;DHT22;8008;50.024;8.172;2023-04-03T18:46:47;8.20;48.60
15815;DHT22;8008;50.024;8.172;2023-04-03T18:49:17;8.20;48.70
15815;DHT22;8008;50.024;8.172;2023-04-03T18:51:45;8.10;48.60
15815;DHT22;8008;50.024;8.172;2023-04-03T18:54:14;8.00;49.30
15815;DHT22;8008;50.024;8.172;2023-04-03T18:56:42;8.10;49.50
15815;DHT22;8008;50.024;8.172;2023-04-03T18:59:10;8.10;50.40
15815;DHT22;8008;50.024;8.172;2023-04-03T19:01:38;8.00;49.20
15815;DHT22;8008;50.024;8.172;2023-04-03T19:04:07;8.00;49.80
15815;DHT22;8008;50.024;8.172;2023-04-03T19:06:37;7.90;50.10
15815;DHT22;8008;50.024;8.172;2023-04-03T19:09:05;7.90;50.10
15815;DHT22;8008;50.024;8.172;2023-04-03T19:11:34;7.80;50.00
15815;DHT22;8008;50.024;8.172;2023-04-03T19:14:02;7.80;49.90
15815;DHT22;8008;50.024;8.172;2023-04-03T19:16:42;7.80;49.80
15815;DHT22;8008;50.024;8.172;2023-04-03T19:19:10;7.70;49.60
15815;DHT22;8008;50.024;8.172;2023-04-03T19:21:40;7.60;50.10
15815;DHT22;8008;50.024;8.172;2023-04-03T19:24:10;7.60;50.40
15815;DHT22;8008;50.024;8.172;2023-04-03T19:26:39;7.60;50.30